Time;durP1;ratioP1;P1;durP2;ratioP2;P2;SDS_P1;SDS_P2;PMS_P1;PMS_P2;Temp;Humidity;BMP_temperature;BMP_pressure;BME280_temperature;BME280_humidity;BME280_pressure;Samples;Min_cycle;Max_cycle;Signal;HPM_P1;HPM_P2
2022/03/17 00:02:31;;;;;;;4.77;4.37;;;;;;;;;;5055865;28;20195;-69
2022/03/17 00:05:02;;;;;;;4.67;3.90;;;;;;;;;;5045811;28;20333;-69
2022/03/17 00:07:34;;;;;;;4.53;4.07;;;;;;;;;;5029635;28;20213;-69
2022/03/17 00:10:06;;;;;;;3.70;3.40;;;;;;;;;;5040832;28;20206;-69
2022/03/17 00:12:50;;;;;;;4.60;4.20;;;;;;;;;;5043737;28;20325;-70
2022/03/17 00:15:20;;;;;;;4.40;3.87;;;;;;;;;;5045815;28;20221;-69
2022/03/17 00:17:53;;;;;;;4.93;4.53;;;;;;;;;;5039913;28;20805;-69
2022/03/17 00:20:23;;;;;;;4.80;4.40;;;;;;;;;;5025987;28;20194;-69
2022/03/17 00:22:53;;;;;;;4.40;4.07;;;;;;;;;;5040651;28;20235;-69
2022/03/17 00:25:21;;;;;;;4.47;4.07;;;;;;;;;;5052252;28;20307;-69
2022/03/17 00:27:53;;;;;;;5.00;4.50;;;;;;;;;;5046372;28;20557;-69
2022/03/17 00:30:25;;;;;;;4.93;4.53;;;;;;;;;;5043914;28;20208;-69
2022/03/17 00:32:56;;;;;;;4.97;4.47;;;;;;;;;;5043087;28;20526;-69
2022/03/17 00:35:42;;;;;;;4.67;4.27;;;;;;;;;;5034347;28;20269;-69
2022/03/17 00:38:14;;;;;;;5.20;4.80;;;;;;;;;;5036822;28;20237;-70
2022/03/17 00:40:44;;;;;;;4.70;4.30;;;;;;;;;;5052719;28;20692;-69
2022/03/17 00:43:22;;;;;;;4.87;4.47;;;;;;;;;;5049666;28;20209;-69
2022/03/17 00:46:05;;;;;;;4.47;4.07;;;;;;;;;;5063986;28;20253;-69
2022/03/17 00:48:47;;;;;;;4.57;4.17;;;;;;;;;;5054430;28;20217;-69
2022/03/17 00:51:18;;;;;;;4.33;3.93;;;;;;;;;;5065682;28;20643;-69
2022/03/17 00:53:48;;;;;;;4.60;4.30;;;;;;;;;;5054686;28;20311;-69
2022/03/17 00:56:17;;;;;;;4.20;3.90;;;;;;;;;;5065729;28;20185;-70
2022/03/17 00:58:49;;;;;;;4.47;4.03;;;;;;;;;;5066455;28;20205;-69
2022/03/17 01:01:23;;;;;;;5.23;4.17;;;;;;;;;;5061363;28;20229;-69
2022/03/17 01:03:55;;;;;;;4.30;3.93;;;;;;;;;;5065457;28;20201;-70
2022/03/17 01:06:27;;;;;;;4.23;3.83;;;;;;;;;;5057013;28;20226;-69
2022/03/17 01:09:02;;;;;;;4.60;4.20;;;;;;;;;;5063886;28;20229;-70
2022/03/17 01:11:31;;;;;;;4.20;3.90;;;;;;;;;;5064156;28;20209;-69
2022/03/17 01:14:03;;;;;;;4.57;4.17;;;;;;;;;;5065880;28;20221;-69
2022/03/17 01:16:37;;;;;;;4.40;4.10;;;;;;;;;;5064646;28;20226;-69
2022/03/17 01:19:13;;;;;;;3.50;3.20;;;;;;;;;;5067149;28;20202;-69
2022/03/17 01:21:52;;;;;;;4.10;3.80;;;;;;;;;;5065478;28;20220;-69
2022/03/17 01:24:21;;;;;;;5.90;3.80;;;;;;;;;;5063336;28;20626;-69
2022/03/17 01:26:53;;;;;;;3.80;3.50;;;;;;;;;;5075285;28;20221;-69
2022/03/17 01:29:23;;;;;;;3.93;3.53;;;;;;;;;;5070811;28;20219;-69
2022/03/17 01:31:57;;;;;;;3.83;3.53;;;;;;;;;;5084169;28;20641;-70
2022/03/17 01:34:28;;;;;;;3.77;3.47;;;;;;;;;;5074455;28;20602;-69
2022/03/17 01:37:03;;;;;;;4.20;3.90;;;;;;;;;;5068696;28;20223;-69
2022/03/17 01:39:39;;;;;;;4.00;3.70;;;;;;;;;;5070418;28;20232;-69
2022/03/17 01:42:12;;;;;;;3.77;3.47;;;;;;;;;;5053019;28;20834;-69
2022/03/17 01:44:45;;;;;;;3.67;3.37;;;;;;;;;;5044938;28;20217;-68
2022/03/17 01:47:28;;;;;;;4.43;3.50;;;;;;;;;;5085461;28;20262;-69
2022/03/17 01:50:04;;;;;;;4.20;3.77;;;;;;;;;;5049395;28;20198;-69
2022/03/17 01:52:33;;;;;;;3.57;3.27;;;;;;;;;;5081590;28;20177;-70
2022/03/17 01:55:04;;;;;;;4.07;3.77;;;;;;;;;;5072309;28;20186;-70
2022/03/17 01:57:33;;;;;;;3.73;3.40;;;;;;;;;;5080055;28;20607;-69
2022/03/17 02:00:05;;;;;;;4.50;3.67;;;;;;;;;;5078520;28;20205;-70
2022/03/17 02:02:37;;;;;;;3.90;3.60;;;;;;;;;;5076906;28;20201;-69
2022/03/17 02:05:07;;;;;;;5.10;3.97;;;;;;;;;;5084120;28;20212;-70
2022/03/17 02:07:38;;;;;;;4.03;3.50;;;;;;;;;;5089810;28;20865;-70
2022/03/17 02:10:09;;;;;;;4.17;3.77;;;;;;;;;;5065576;28;20202;-69
2022/03/17 02:15:32;;;;;;;4.00;3.70;;;;;;;;;;5057104;28;20772;-69
2022/03/17 02:18:09;;;;;;;4.40;4.00;;;;;;;;;;5089210;28;20666;-69
2022/03/17 02:20:38;;;;;;;4.10;3.80;;;;;;;;;;5060448;28;20668;-69
2022/03/17 02:26:01;;;;;;;4.90;3.93;;;;;;;;;;5080192;28;20218;-70
2022/03/17 02:28:33;;;;;;;4.20;3.80;;;;;;;;;;5077387;28;20213;-69
2022/03/17 02:31:06;;;;;;;4.80;4.30;;;;;;;;;;5070577;28;20535;-68
2022/03/17 02:33:47;;;;;;;5.03;4.53;;;;;;;;;;5064043;28;20307;-69
2022/03/17 02:36:18;;;;;;;5.00;4.07;;;;;;;;;;5067798;28;20209;-68
2022/03/17 02:38:50;;;;;;;4.60;4.20;;;;;;;;;;5068709;28;20225;-70
2022/03/17 02:41:25;;;;;;;4.90;4.50;;;;;;;;;;5072958;28;20201;-69
2022/03/17 02:44:04;;;;;;;5.27;4.77;;;;;;;;;;5085789;28;20193;-69
2022/03/17 02:46:44;;;;;;;5.20;4.70;;;;;;;;;;5077132;28;20225;-70
2022/03/17 02:49:18;;;;;;;5.67;5.03;;;;;;;;;;5057584;28;20239;-69
2022/03/17 02:51:46;;;;;;;5.50;5.00;;;;;;;;;;5065553;28;20665;-69
2022/03/17 02:54:16;;;;;;;5.03;4.63;;;;;;;;;;5061814;28;20599;-68
2022/03/17 02:56:47;;;;;;;5.43;4.93;;;;;;;;;;5066916;28;20189;-69
2022/03/17 02:59:18;;;;;;;5.33;4.93;;;;;;;;;;5083317;28;20236;-69
2022/03/17 03:01:50;;;;;;;4.80;4.40;;;;;;;;;;5079181;28;20272;-69
2022/03/17 03:04:20;;;;;;;5.20;4.70;;;;;;;;;;5082488;28;20201;-68
2022/03/17 03:06:50;;;;;;;5.30;4.80;;;;;;;;;;5075698;28;20205;-69
2022/03/17 03:09:30;;;;;;;5.07;4.60;;;;;;;;;;5041885;28;20217;-69
2022/03/17 03:12:03;;;;;;;4.97;4.57;;;;;;;;;;5051516;28;20197;-69
2022/03/17 03:14:36;;;;;;;4.60;4.20;;;;;;;;;;5071361;28;20204;-70
2022/03/17 03:17:07;;;;;;;4.40;4.00;;;;;;;;;;5076891;28;20660;-69
2022/03/17 03:19:37;;;;;;;4.90;4.43;;;;;;;;;;5062213;28;20705;-69
2022/03/17 03:22:09;;;;;;;4.63;4.10;;;;;;;;;;5069440;28;20697;-70
2022/03/17 03:24:37;;;;;;;5.30;4.80;;;;;;;;;;5047347;28;20840;-69
2022/03/17 03:27:09;;;;;;;4.63;4.23;;;;;;;;;;5067369;28;20642;-69
2022/03/17 03:29:52;;;;;;;5.03;4.07;;;;;;;;;;5066396;28;20279;-69
2022/03/17 03:32:23;;;;;;;4.43;4.03;;;;;;;;;;5075119;28;20213;-68
2022/03/17 03:34:56;;;;;;;4.53;4.13;;;;;;;;;;5055713;28;20251;-70
2022/03/17 03:37:28;;;;;;;3.87;3.53;;;;;;;;;;5091743;28;20250;-68
2022/03/17 03:40:00;;;;;;;4.20;3.80;;;;;;;;;;5086585;28;20196;-70
2022/03/17 03:42:30;;;;;;;3.60;3.30;;;;;;;;;;5070866;28;20197;-69
2022/03/17 03:45:03;;;;;;;3.33;3.03;;;;;;;;;;5074376;28;20210;-69
2022/03/17 03:47:36;;;;;;;4.23;3.83;;;;;;;;;;5072211;28;20219;-69
2022/03/17 03:50:09;;;;;;;4.47;3.07;;;;;;;;;;5080999;28;20197;-69
2022/03/17 03:52:43;;;;;;;3.87;3.50;;;;;;;;;;5081859;28;20189;-70
2022/03/17 03:55:13;;;;;;;3.57;3.27;;;;;;;;;;5078239;28;20204;-70
2022/03/17 03:57:46;;;;;;;3.93;3.33;;;;;;;;;;5082299;28;20239;-70
2022/03/17 04:00:20;;;;;;;3.30;3.00;;;;;;;;;;5068449;28;20189;-69
2022/03/17 04:02:58;;;;;;;3.60;3.30;;;;;;;;;;5071934;28;20181;-69
2022/03/17 04:05:42;;;;;;;3.37;3.07;;;;;;;;;;5059980;28;20189;-69
2022/03/17 04:08:13;;;;;;;3.37;3.07;;;;;;;;;;5072034;28;20212;-70
2022/03/17 04:10:44;;;;;;;4.20;3.10;;;;;;;;;;5082556;28;20654;-71
2022/03/17 04:13:15;;;;;;;3.37;3.07;;;;;;;;;;5064002;28;20190;-70
2022/03/17 04:15:47;;;;;;;3.40;3.10;;;;;;;;;;5078488;28;20193;-70
2022/03/17 04:18:18;;;;;;;3.63;3.33;;;;;;;;;;5064592;28;20651;-70
2022/03/17 04:20:46;;;;;;;3.03;2.73;;;;;;;;;;5060630;28;20212;-69
2022/03/17 04:23:16;;;;;;;3.17;2.77;;;;;;;;;;5069537;28;20451;-69
2022/03/17 04:25:49;;;;;;;3.03;2.80;;;;;;;;;;5078025;28;20200;-70
2022/03/17 04:28:24;;;;;;;2.90;2.70;;;;;;;;;;5073185;28;20205;-69
2022/03/17 04:30:56;;;;;;;3.40;3.10;;;;;;;;;;5079453;28;20206;-70
2022/03/17 04:33:28;;;;;;;4.67;3.10;;;;;;;;;;5067593;28;20880;-70
2022/03/17 04:36:04;;;;;;;3.10;2.80;;;;;;;;;;5086096;28;20330;-69
2022/03/17 04:38:35;;;;;;;3.67;2.83;;;;;;;;;;5063881;28;20225;-70
2022/03/17 04:41:20;;;;;;;3.80;3.30;;;;;;;;;;5068725;28;20209;-70
2022/03/17 04:43:51;;;;;;;3.63;3.33;;;;;;;;;;5065824;28;20271;-70
2022/03/17 04:46:23;;;;;;;3.60;3.30;;;;;;;;;;5053995;28;20282;-70
2022/03/17 04:48:54;;;;;;;4.10;3.70;;;;;;;;;;5065832;28;20193;-70
2022/03/17 04:51:26;;;;;;;3.80;3.23;;;;;;;;;;5076632;28;20247;-69
2022/03/17 04:53:56;;;;;;;3.80;3.50;;;;;;;;;;5066206;28;20653;-69
2022/03/17 04:56:32;;;;;;;4.30;3.90;;;;;;;;;;5063529;28;20186;-69
2022/03/17 04:59:08;;;;;;;3.70;3.40;;;;;;;;;;5046641;28;20216;-69
2022/03/17 05:01:39;;;;;;;4.27;3.80;;;;;;;;;;5066405;28;20201;-69
2022/03/17 05:04:12;;;;;;;4.17;3.73;;;;;;;;;;5065463;28;20194;-70
2022/03/17 05:06:40;;;;;;;4.60;4.20;;;;;;;;;;5065979;28;20205;-70
2022/03/17 05:09:13;;;;;;;5.13;4.63;;;;;;;;;;5067384;28;20220;-70
2022/03/17 05:11:41;;;;;;;4.83;4.43;;;;;;;;;;5072629;28;20213;-70
2022/03/17 05:14:10;;;;;;;4.37;3.97;;;;;;;;;;5073218;28;20194;-69
2022/03/17 05:16:41;;;;;;;3.97;3.67;;;;;;;;;;5080537;28;20202;-69
2022/03/17 05:19:15;;;;;;;5.00;4.20;;;;;;;;;;5049128;28;20301;-70
2022/03/17 05:21:47;;;;;;;4.37;3.90;;;;;;;;;;5068092;28;20216;-69
2022/03/17 05:24:15;;;;;;;4.07;3.67;;;;;;;;;;5070816;28;20740;-69
2022/03/17 05:26:46;;;;;;;4.53;4.07;;;;;;;;;;5058966;28;20647;-71
2022/03/17 05:29:19;;;;;;;3.90;3.60;;;;;;;;;;5074034;28;20217;-70
2022/03/17 05:31:52;;;;;;;4.27;3.87;;;;;;;;;;5069850;28;20201;-69
2022/03/17 05:34:32;;;;;;;4.90;3.90;;;;;;;;;;5055963;28;20716;-70
2022/03/17 05:37:01;;;;;;;4.83;4.33;;;;;;;;;;5078561;28;20174;-68
2022/03/17 05:39:37;;;;;;;4.20;3.80;;;;;;;;;;5067154;28;20237;-69
2022/03/17 05:42:13;;;;;;;4.37;3.97;;;;;;;;;;5079466;28;20209;-71
2022/03/17 05:44:42;;;;;;;4.47;4.07;;;;;;;;;;5065915;28;20214;-72
2022/03/17 05:47:13;;;;;;;5.10;4.20;;;;;;;;;;5077350;28;20206;-73
2022/03/17 05:49:47;;;;;;;4.27;3.87;;;;;;;;;;5068516;28;20209;-73
2022/03/17 05:52:20;;;;;;;4.80;4.30;;;;;;;;;;5067163;28;20192;-68
2022/03/17 05:54:49;;;;;;;4.77;4.30;;;;;;;;;;5073338;28;20649;-69
2022/03/17 05:57:25;;;;;;;4.33;3.70;;;;;;;;;;5076145;28;20217;-69
2022/03/17 05:59:55;;;;;;;4.33;3.80;;;;;;;;;;5063306;28;20190;-70
2022/03/17 06:02:27;;;;;;;5.30;3.57;;;;;;;;;;5058251;28;20226;-69
2022/03/17 06:04:57;;;;;;;4.13;3.50;;;;;;;;;;5054934;28;20198;-69
2022/03/17 06:08:00;;;;;;;5.00;3.67;;;;;;;;;;5083712;28;20571;-71
2022/03/17 06:10:53;;;;;;;6.27;3.50;;;;;;;;;;5062245;28;20265;-70
2022/03/17 06:13:35;;;;;;;4.77;3.20;;;;;;;;;;5048961;28;20302;-70
2022/03/17 06:16:08;;;;;;;4.30;3.77;;;;;;;;;;5072504;28;20615;-69
2022/03/17 06:18:43;;;;;;;4.80;3.13;;;;;;;;;;5067399;28;20197;-69
2022/03/17 06:21:14;;;;;;;5.07;3.30;;;;;;;;;;5066437;28;20232;-70
2022/03/17 06:23:46;;;;;;;5.43;3.00;;;;;;;;;;5069747;28;20207;-70
2022/03/17 06:26:18;;;;;;;6.00;3.50;;;;;;;;;;5067292;28;20209;-70
2022/03/17 06:28:52;;;;;;;5.07;2.90;;;;;;;;;;5068576;28;20748;-71
2022/03/17 06:31:22;;;;;;;5.33;2.57;;;;;;;;;;5060894;28;20197;-69
2022/03/17 06:33:52;;;;;;;4.43;2.50;;;;;;;;;;5060620;28;20278;-69
2022/03/17 06:36:26;;;;;;;3.17;2.70;;;;;;;;;;5072230;28;20281;-72
2022/03/17 06:38:55;;;;;;;5.33;2.83;;;;;;;;;;5050475;28;20256;-73
2022/03/17 06:41:38;;;;;;;3.20;1.80;;;;;;;;;;5053767;28;20287;-69
2022/03/17 06:44:08;;;;;;;4.23;2.07;;;;;;;;;;5053189;28;20202;-70
2022/03/17 06:46:37;;;;;;;4.50;2.63;;;;;;;;;;5042905;28;20197;-70
2022/03/17 06:49:06;;;;;;;3.03;2.07;;;;;;;;;;5053524;28;20201;-70
2022/03/17 06:51:38;;;;;;;3.57;2.13;;;;;;;;;;5065230;28;20206;-72
2022/03/17 06:54:07;;;;;;;5.37;2.30;;;;;;;;;;5067561;28;20199;-72
2022/03/17 06:56:37;;;;;;;4.80;1.80;;;;;;;;;;5066585;28;20185;-72
2022/03/17 06:59:05;;;;;;;3.87;2.00;;;;;;;;;;5067687;28;20259;-73
2022/03/17 07:01:36;;;;;;;4.07;2.07;;;;;;;;;;5058941;28;20206;-70
2022/03/17 07:04:09;;;;;;;2.90;1.73;;;;;;;;;;5046397;28;20190;-69
2022/03/17 07:06:44;;;;;;;4.13;1.67;;;;;;;;;;5085763;28;20283;-69
2022/03/17 07:09:19;;;;;;;2.97;1.80;;;;;;;;;;5071258;28;20205;-70
2022/03/17 07:11:49;;;;;;;4.53;1.80;;;;;;;;;;5064202;28;20198;-68
2022/03/17 07:14:19;;;;;;;358.83;73.73;;;;;;;;;;5071176;28;20212;-73
2022/03/17 07:16:50;;;;;;;276.63;51.27;;;;;;;;;;5050189;28;20209;-72
2022/03/17 07:19:22;;;;;;;231.03;47.43;;;;;;;;;;5048951;28;20213;-73
2022/03/17 07:21:53;;;;;;;198.40;40.40;;;;;;;;;;5066178;28;20248;-72
2022/03/17 07:24:27;;;;;;;177.00;36.27;;;;;;;;;;5057751;28;20213;-72
2022/03/17 07:26:58;;;;;;;164.83;30.90;;;;;;;;;;5064464;28;20196;-74
2022/03/17 07:29:31;;;;;;;106.57;25.87;;;;;;;;;;5056101;28;20216;-73
2022/03/17 07:32:02;;;;;;;117.97;24.20;;;;;;;;;;5065143;28;20570;-73
2022/03/17 07:34:34;;;;;;;92.70;21.50;;;;;;;;;;5064328;28;20235;-73
2022/03/17 07:37:03;;;;;;;87.70;23.40;;;;;;;;;;5067424;28;20194;-71
2022/03/17 07:39:31;;;;;;;104.80;26.60;;;;;;;;;;5038473;28;20233;-71
2022/03/17 07:41:59;;;;;;;97.63;24.33;;;;;;;;;;5040968;28;20635;-74
2022/03/17 07:44:31;;;;;;;79.87;22.30;;;;;;;;;;5036901;28;20194;-73
2022/03/17 07:47:01;;;;;;;78.63;21.87;;;;;;;;;;5044563;28;20230;-72
2022/03/17 07:49:30;;;;;;;68.47;18.97;;;;;;;;;;5041862;28;20214;-72
2022/03/17 07:51:58;;;;;;;61.83;18.47;;;;;;;;;;5042931;28;20209;-70
2022/03/17 07:54:28;;;;;;;57.83;16.90;;;;;;;;;;5040307;28;20259;-73
2022/03/17 07:56:56;;;;;;;58.17;16.00;;;;;;;;;;5053107;28;20198;-73
2022/03/17 07:59:26;;;;;;;53.17;14.87;;;;;;;;;;5047623;28;20214;-74
2022/03/17 08:01:58;;;;;;;43.33;13.40;;;;;;;;;;5050832;28;20205;-69
2022/03/17 08:04:27;;;;;;;42.77;11.97;;;;;;;;;;5043602;28;20199;-68
2022/03/17 08:07:03;;;;;;;24.93;10.17;;;;;;;;;;5046867;28;20268;-67
2022/03/17 08:09:35;;;;;;;30.13;9.00;;;;;;;;;;5045270;28;20194;-66
2022/03/17 08:12:07;;;;;;;21.57;7.90;;;;;;;;;;5042209;28;20595;-67
2022/03/17 08:14:38;;;;;;;22.67;8.10;;;;;;;;;;5051437;28;20201;-69
2022/03/17 08:17:06;;;;;;;27.90;8.17;;;;;;;;;;5052565;28;20611;-64
2022/03/17 08:19:37;;;;;;;16.63;5.97;;;;;;;;;;5047379;28;20190;-65
2022/03/17 08:22:09;;;;;;;18.53;6.63;;;;;;;;;;5059117;28;20182;-67
2022/03/17 08:24:39;;;;;;;15.97;6.60;;;;;;;;;;5049332;28;20214;-66
2022/03/17 08:27:10;;;;;;;15.10;5.63;;;;;;;;;;5052720;28;20190;-66
2022/03/17 08:29:47;;;;;;;14.90;5.40;;;;;;;;;;5060246;28;20238;-66
2022/03/17 08:32:18;;;;;;;12.50;5.57;;;;;;;;;;5033982;28;20204;-69
2022/03/17 08:34:48;;;;;;;14.00;5.40;;;;;;;;;;5047828;28;20210;-68
2022/03/17 08:37:16;;;;;;;14.70;5.47;;;;;;;;;;5057450;28;20190;-66
2022/03/17 08:39:45;;;;;;;12.53;5.00;;;;;;;;;;5066261;28;20340;-65
2022/03/17 08:42:17;;;;;;;12.83;4.27;;;;;;;;;;5066328;28;20578;-68
2022/03/17 08:44:53;;;;;;;12.17;4.50;;;;;;;;;;5055629;28;20208;-68
2022/03/17 08:50:14;;;;;;;10.90;4.03;;;;;;;;;;5086210;28;20201;-70
2022/03/17 08:52:49;;;;;;;7.37;2.93;;;;;;;;;;5088908;28;20196;-71
2022/03/17 08:55:21;;;;;;;7.47;3.30;;;;;;;;;;5063312;28;20322;-69
2022/03/17 08:57:52;;;;;;;7.27;2.90;;;;;;;;;;5086970;28;20196;-70
2022/03/17 09:00:24;;;;;;;9.07;3.10;;;;;;;;;;5062872;28;20642;-66
2022/03/17 09:02:55;;;;;;;8.07;3.23;;;;;;;;;;5086352;28;20201;-66
2022/03/17 09:05:24;;;;;;;10.00;3.10;;;;;;;;;;5084383;28;20975;-66
2022/03/17 09:07:55;;;;;;;6.50;2.97;;;;;;;;;;5075803;28;20232;-65
2022/03/17 09:10:26;;;;;;;9.00;2.80;;;;;;;;;;5078272;28;20193;-67
2022/03/17 09:12:57;;;;;;;8.53;2.97;;;;;;;;;;5086214;28;20208;-68
2022/03/17 09:15:30;;;;;;;5.77;2.53;;;;;;;;;;5081078;28;20204;-67
2022/03/17 09:18:00;;;;;;;7.00;2.83;;;;;;;;;;5082944;28;20216;-68
2022/03/17 09:20:32;;;;;;;5.70;2.37;;;;;;;;;;5083453;28;20193;-66
2022/03/17 09:23:02;;;;;;;6.67;2.87;;;;;;;;;;5082958;28;20220;-66
2022/03/17 09:25:34;;;;;;;4.40;2.13;;;;;;;;;;5071583;28;20534;-68
2022/03/17 09:28:07;;;;;;;11.23;2.30;;;;;;;;;;5084625;28;20237;-67
2022/03/17 09:30:41;;;;;;;5.37;1.93;;;;;;;;;;5067885;28;20661;-67
2022/03/17 09:33:12;;;;;;;5.77;2.30;;;;;;;;;;5085719;28;20626;-67
2022/03/17 09:35:43;;;;;;;6.10;1.97;;;;;;;;;;5080292;28;20212;-67
2022/03/17 09:38:11;;;;;;;4.83;2.20;;;;;;;;;;5071770;28;20241;-68
2022/03/17 09:40:47;;;;;;;5.00;2.17;;;;;;;;;;5085525;28;20192;-68
2022/03/17 09:43:22;;;;;;;3.50;1.57;;;;;;;;;;5068549;28;20185;-68
2022/03/17 09:46:01;;;;;;;7.57;1.77;;;;;;;;;;5084778;28;20193;-68
2022/03/17 09:48:38;;;;;;;3.73;1.60;;;;;;;;;;5063087;28;20224;-68
2022/03/17 09:51:22;;;;;;;5.87;1.50;;;;;;;;;;5083643;28;20193;-68
2022/03/17 09:54:05;;;;;;;5.57;1.90;;;;;;;;;;5087500;28;20224;-67
2022/03/17 09:56:39;;;;;;;6.80;2.37;;;;;;;;;;5091832;28;20296;-68
2022/03/17 09:59:11;;;;;;;4.10;2.07;;;;;;;;;;5083336;28;20208;-68
2022/03/17 10:01:44;;;;;;;4.47;1.60;;;;;;;;;;5071943;28;20225;-70
2022/03/17 10:04:21;;;;;;;3.57;1.23;;;;;;;;;;5071499;28;20177;-70
2022/03/17 10:06:53;;;;;;;3.37;1.30;;;;;;;;;;5098277;28;20204;-69
2022/03/17 10:09:57;;;;;;;4.07;1.50;;;;;;;;;;5089673;28;20213;-68
2022/03/17 10:12:40;;;;;;;3.83;1.77;;;;;;;;;;5083953;28;20248;-67
2022/03/17 10:15:18;;;;;;;3.33;1.30;;;;;;;;;;5073054;28;20232;-66
2022/03/17 10:17:48;;;;;;;3.23;1.40;;;;;;;;;;5063671;28;20185;-70
2022/03/17 10:20:27;;;;;;;5.93;1.50;;;;;;;;;;5088209;28;20669;-70
2022/03/17 10:23:02;;;;;;;3.33;1.23;;;;;;;;;;5064794;28;20201;-70
2022/03/17 10:25:32;;;;;;;5.40;1.60;;;;;;;;;;5052463;28;20209;-69
2022/03/17 10:28:03;;;;;;;3.57;1.60;;;;;;;;;;5071076;28;20217;-69
2022/03/17 10:30:36;;;;;;;5.40;1.37;;;;;;;;;;5069135;28;20870;-70
2022/03/17 10:33:14;;;;;;;4.97;1.30;;;;;;;;;;5089645;28;20262;-71
2022/03/17 10:35:48;;;;;;;5.27;1.77;;;;;;;;;;5086124;28;20213;-70
2022/03/17 10:38:22;;;;;;;5.27;1.00;;;;;;;;;;5085790;28;20240;-71
2022/03/17 10:41:02;;;;;;;3.97;1.20;;;;;;;;;;5088547;28;20196;-71
2022/03/17 10:43:34;;;;;;;3.60;1.53;;;;;;;;;;5086952;28;20244;-71
2022/03/17 10:46:16;;;;;;;3.83;1.10;;;;;;;;;;5088602;28;20197;-70
2022/03/17 10:48:52;;;;;;;4.17;1.27;;;;;;;;;;5072496;28;20229;-70
2022/03/17 10:51:38;;;;;;;2.40;1.20;;;;;;;;;;5088922;28;20196;-71
2022/03/17 10:54:19;;;;;;;3.67;1.50;;;;;;;;;;5089683;28;20209;-72
2022/03/17 10:57:18;;;;;;;3.47;1.23;;;;;;;;;;5087982;28;20196;-72
2022/03/17 11:03:12;;;;;;;4.70;1.50;;;;;;;;;;5088300;28;20216;-69
2022/03/17 11:05:43;;;;;;;5.07;1.30;;;;;;;;;;5067194;28;20804;-69
2022/03/17 11:08:14;;;;;;;5.27;1.37;;;;;;;;;;5087784;28;20674;-71
2022/03/17 11:10:45;;;;;;;3.30;1.60;;;;;;;;;;5084542;28;20213;-70
2022/03/17 11:13:20;;;;;;;2.80;1.30;;;;;;;;;;5088121;28;20188;-70
2022/03/17 11:16:09;;;;;;;3.67;1.20;;;;;;;;;;5087521;28;20189;-71
2022/03/17 11:18:40;;;;;;;4.83;1.53;;;;;;;;;;5085654;28;20189;-70
2022/03/17 11:21:28;;;;;;;5.40;1.50;;;;;;;;;;5080806;28;20290;-70
2022/03/17 11:24:00;;;;;;;3.93;1.00;;;;;;;;;;5084602;28;20234;-70
2022/03/17 11:26:41;;;;;;;3.77;1.40;;;;;;;;;;5089984;28;20279;-68
2022/03/17 11:29:17;;;;;;;5.27;1.43;;;;;;;;;;5066636;28;20208;-68
2022/03/17 11:32:08;;;;;;;3.47;1.20;;;;;;;;;;5088543;28;20201;-70
2022/03/17 11:34:37;;;;;;;3.63;1.60;;;;;;;;;;5080341;28;20216;-70
2022/03/17 11:37:18;;;;;;;3.70;1.37;;;;;;;;;;5084672;28;20258;-70
2022/03/17 11:39:53;;;;;;;3.23;1.50;;;;;;;;;;5086066;28;20282;-70
2022/03/17 11:42:40;;;;;;;3.30;1.23;;;;;;;;;;5083358;28;20201;-69
2022/03/17 11:45:19;;;;;;;4.80;1.70;;;;;;;;;;5088035;28;20630;-68
2022/03/17 11:48:02;;;;;;;4.43;1.97;;;;;;;;;;5076859;28;20736;-70
2022/03/17 11:50:40;;;;;;;5.07;2.00;;;;;;;;;;5067950;28;20784;-70
2022/03/17 11:53:30;;;;;;;1.83;1.40;;;;;;;;;;5085303;28;20232;-70
2022/03/17 11:56:09;;;;;;;3.93;1.90;;;;;;;;;;5078838;28;20209;-67
2022/03/17 11:59:02;;;;;;;4.47;1.77;;;;;;;;;;5081894;28;20204;-70
2022/03/17 12:01:44;;;;;;;3.67;1.50;;;;;;;;;;5082506;28;20228;-70
2022/03/17 12:04:24;;;;;;;3.67;1.60;;;;;;;;;;5086305;28;20192;-69
2022/03/17 12:07:16;;;;;;;4.03;1.70;;;;;;;;;;5071459;28;20199;-71
2022/03/17 12:09:47;;;;;;;3.13;1.43;;;;;;;;;;5067755;28;20212;-70
2022/03/17 12:12:29;;;;;;;4.43;1.30;;;;;;;;;;5079665;28;20777;-70
2022/03/17 12:15:00;;;;;;;3.10;1.63;;;;;;;;;;5066848;28;20197;-70
2022/03/17 12:17:40;;;;;;;2.77;1.20;;;;;;;;;;5084218;28;20258;-69
2022/03/17 12:20:14;;;;;;;2.93;1.10;;;;;;;;;;5085266;28;20216;-69
2022/03/17 12:22:45;;;;;;;2.23;1.27;;;;;;;;;;5084638;28;20693;-69
2022/03/17 12:25:26;;;;;;;2.73;1.27;;;;;;;;;;5069454;28;20200;-70
2022/03/17 12:28:00;;;;;;;4.03;1.20;;;;;;;;;;5084230;28;20584;-68
2022/03/17 12:30:38;;;;;;;4.70;1.30;;;;;;;;;;5084718;28;20188;-65
2022/03/17 12:33:09;;;;;;;2.90;1.40;;;;;;;;;;5087054;28;20196;-66
2022/03/17 12:35:41;;;;;;;3.17;1.23;;;;;;;;;;5085607;28;20209;-67
2022/03/17 12:38:12;;;;;;;1.90;1.33;;;;;;;;;;5068305;28;20181;-66
2022/03/17 12:40:45;;;;;;;2.47;1.00;;;;;;;;;;5087401;28;20213;-66
2022/03/17 12:43:22;;;;;;;2.63;1.07;;;;;;;;;;5085644;28;20282;-66
2022/03/17 12:45:52;;;;;;;1.90;1.03;;;;;;;;;;5087648;28;20211;-66
2022/03/17 12:48:25;;;;;;;3.60;1.23;;;;;;;;;;5081747;28;20619;-68
2022/03/17 12:51:11;;;;;;;3.57;1.37;;;;;;;;;;5070714;28;20274;-67
2022/03/17 12:54:05;;;;;;;1.93;1.10;;;;;;;;;;5072429;28;20225;-67
2022/03/17 12:56:48;;;;;;;2.37;1.00;;;;;;;;;;5089813;28;20232;-68
2022/03/17 12:59:48;;;;;;;4.10;1.13;;;;;;;;;;5085957;28;20205;-70
2022/03/17 13:02:21;;;;;;;4.50;1.27;;;;;;;;;;5086700;28;20762;-68
2022/03/17 13:04:58;;;;;;;1.97;1.10;;;;;;;;;;5086303;28;20537;-70
2022/03/17 13:07:30;;;;;;;3.57;1.30;;;;;;;;;;5095029;28;20657;-66
2022/03/17 13:10:00;;;;;;;1.87;1.20;;;;;;;;;;5086438;28;20239;-66
2022/03/17 13:15:23;;;;;;;2.30;1.20;;;;;;;;;;5087599;28;20193;-67
2022/03/17 13:18:04;;;;;;;2.70;0.90;;;;;;;;;;5071967;28;20189;-67
2022/03/17 13:20:34;;;;;;;3.07;1.30;;;;;;;;;;5067866;28;20212;-69
2022/03/17 13:23:04;;;;;;;2.07;1.10;;;;;;;;;;5082795;28;20209;-69
2022/03/17 13:25:41;;;;;;;3.13;1.03;;;;;;;;;;5070667;28;20205;-70
2022/03/17 13:28:15;;;;;;;2.93;1.20;;;;;;;;;;5070722;28;20190;-68
2022/03/17 13:30:48;;;;;;;3.60;1.13;;;;;;;;;;5091673;28;20196;-68
2022/03/17 13:33:40;;;;;;;3.10;1.10;;;;;;;;;;5074588;28;20211;-68
2022/03/17 13:36:08;;;;;;;6.23;1.60;;;;;;;;;;5085991;28;20207;-67
2022/03/17 13:38:40;;;;;;;3.53;1.73;;;;;;;;;;5087544;28;20652;-67
2022/03/17 13:41:20;;;;;;;4.57;1.20;;;;;;;;;;5087592;28;20233;-68
2022/03/17 13:44:05;;;;;;;2.60;1.33;;;;;;;;;;5087148;28;20246;-69
2022/03/17 13:46:39;;;;;;;8.10;2.27;;;;;;;;;;5076875;28;20188;-70
2022/03/17 13:49:15;;;;;;;7.10;2.30;;;;;;;;;;5077095;28;20232;-68
2022/03/17 13:51:42;;;;;;;9.23;2.10;;;;;;;;;;5089697;28;20204;-69
2022/03/17 13:54:11;;;;;;;7.23;2.33;;;;;;;;;;5090077;28;20185;-68
2022/03/17 13:56:43;;;;;;;6.20;1.70;;;;;;;;;;5091893;28;20250;-67
2022/03/17 13:59:15;;;;;;;4.17;2.03;;;;;;;;;;5087388;28;20217;-67
2022/03/17 14:01:47;;;;;;;4.03;1.60;;;;;;;;;;5072834;28;20193;-69
2022/03/17 14:04:28;;;;;;;8.17;2.10;;;;;;;;;;5085032;28;20572;-69
2022/03/17 14:07:03;;;;;;;5.30;2.00;;;;;;;;;;5074180;28;20251;-69
2022/03/17 14:09:34;;;;;;;10.57;3.20;;;;;;;;;;5088814;28;20252;-68
2022/03/17 14:12:22;;;;;;;7.23;2.70;;;;;;;;;;5087810;28;20220;-69
2022/03/17 14:14:54;;;;;;;6.57;2.80;;;;;;;;;;5086533;28;20193;-67
2022/03/17 14:17:28;;;;;;;7.83;2.93;;;;;;;;;;5089636;28;20205;-71
2022/03/17 14:20:05;;;;;;;4.40;2.40;;;;;;;;;;5089223;28;20213;-69
2022/03/17 14:25:38;;;;;;;12.27;3.10;;;;;;;;;;5088087;28;20201;-69
2022/03/17 14:28:09;;;;;;;10.47;3.00;;;;;;;;;;5070459;28;20652;-68
2022/03/17 14:30:40;;;;;;;6.83;2.80;;;;;;;;;;5084678;28;20241;-70
2022/03/17 14:33:15;;;;;;;5.17;2.50;;;;;;;;;;5088645;28;20634;-71
2022/03/17 14:35:45;;;;;;;6.77;2.47;;;;;;;;;;5088793;28;20209;-70
2022/03/17 14:38:15;;;;;;;4.87;2.20;;;;;;;;;;5091472;28;20851;-70
2022/03/17 14:40:46;;;;;;;4.10;1.90;;;;;;;;;;5086403;28;20197;-71
2022/03/17 14:43:18;;;;;;;5.43;1.87;;;;;;;;;;5089444;28;20205;-71
2022/03/17 14:45:48;;;;;;;5.60;2.00;;;;;;;;;;5087859;28;20201;-69
2022/03/17 14:48:20;;;;;;;8.37;2.10;;;;;;;;;;5083391;28;20708;-69
2022/03/17 14:50:51;;;;;;;4.57;1.60;;;;;;;;;;5087601;28;20215;-70
2022/03/17 14:53:21;;;;;;;2.97;1.60;;;;;;;;;;5067080;28;20193;-69
2022/03/17 14:55:55;;;;;;;4.17;1.80;;;;;;;;;;5088121;28;20188;-68
2022/03/17 14:58:25;;;;;;;3.73;1.60;;;;;;;;;;5083833;28;20666;-67
2022/03/17 15:00:58;;;;;;;4.67;1.90;;;;;;;;;;5087562;28;20216;-68
2022/03/17 15:03:31;;;;;;;3.43;1.60;;;;;;;;;;5088044;28;20193;-70
2022/03/17 15:06:06;;;;;;;3.90;1.40;;;;;;;;;;5093320;28;20215;-70
2022/03/17 15:08:40;;;;;;;3.40;1.30;;;;;;;;;;5069219;28;20225;-68
2022/03/17 15:11:10;;;;;;;3.27;1.40;;;;;;;;;;5081631;28;20725;-70
2022/03/17 15:13:45;;;;;;;4.10;1.27;;;;;;;;;;5089034;28;20201;-72
2022/03/17 15:16:44;;;;;;;3.23;1.43;;;;;;;;;;5083082;28;20213;-71
2022/03/17 15:19:21;;;;;;;4.17;1.60;;;;;;;;;;5076523;28;20205;-72
2022/03/17 15:21:54;;;;;;;6.17;1.73;;;;;;;;;;5088155;28;20197;-71
2022/03/17 15:24:25;;;;;;;2.27;1.27;;;;;;;;;;5076050;28;20232;-71
2022/03/17 15:30:07;;;;;;;2.57;1.30;;;;;;;;;;5092175;28;20205;-71
2022/03/17 15:30:10;;;;;;;2.80;1.40;;;;;;;;;;5080377;28;20217;-71
2022/03/17 15:33:01;;;;;;;2.13;1.40;;;;;;;;;;5085656;28;20610;-71
2022/03/17 15:35:33;;;;;;;2.30;1.17;;;;;;;;;;5088048;27;20197;-69
2022/03/17 15:38:03;;;;;;;2.63;1.10;;;;;;;;;;5076211;28;20185;-69
2022/03/17 15:40:33;;;;;;;1.87;1.10;;;;;;;;;;5084960;28;20236;-68